Time;durP1;ratioP1;P1;durP2;ratioP2;P2;SDS_P1;SDS_P2;PMS_P1;PMS_P2;Temp;Humidity;BMP_temperature;BMP_pressure;BME280_temperature;BME280_humidity;BME280_pressure;Samples;Min_cycle;Max_cycle;Signal;HPM_P1;HPM_P2
2021/04/28 00:01:27;;;;;;;7.10;2.63;;;5.50;99.90;;;4.84;51.05;96381.44;4999956;28;20054;-66
2021/04/28 00:03:54;;;;;;;9.68;3.05;;;5.50;99.90;;;4.83;50.90;96375.44;4993236;28;20042;-66
2021/04/28 00:06:20;;;;;;;6.10;3.05;;;5.50;99.90;;;4.72;51.46;96381.00;4972406;28;20050;-66
2021/04/28 00:08:47;;;;;;;8.48;3.13;;;5.40;99.90;;;4.64;51.68;96372.75;4985935;28;20034;-66
2021/04/28 00:11:14;;;;;;;7.78;2.88;;;5.30;99.90;;;4.52;51.99;96379.19;4994571;28;20076;-66
2021/04/28 00:13:40;;;;;;;9.90;3.05;;;5.30;99.90;;;4.37;52.77;96379.75;4993733;28;20056;-66
2021/04/28 00:16:07;;;;;;;8.73;2.70;;;5.20;99.90;;;4.61;51.31;96367.72;4982548;28;20038;-67
2021/04/28 00:18:34;;;;;;;6.70;3.13;;;5.20;99.90;;;4.56;51.44;96360.19;5000269;28;20064;-66
2021/04/28 00:21:01;;;;;;;7.47;2.70;;;5.30;99.90;;;4.44;52.58;96370.91;4997564;28;20068;-66
2021/04/28 00:23:28;;;;;;;9.25;3.25;;;5.20;99.90;;;4.65;51.61;96361.56;4990685;28;20074;-66
2021/04/28 00:25:54;;;;;;;9.98;3.72;;;5.30;99.90;;;4.68;51.41;96366.59;4975828;28;20061;-66
2021/04/28 00:28:21;;;;;;;8.10;2.70;;;5.30;99.90;;;4.63;51.89;96355.66;4979648;28;20078;-66
2021/04/28 00:30:48;;;;;;;6.68;2.80;;;5.30;99.90;;;4.73;51.29;96361.28;4993201;28;20054;-67
2021/04/28 00:33:14;;;;;;;6.10;3.00;;;5.40;99.90;;;4.72;51.42;96354.44;4997859;28;20046;-67
2021/04/28 00:35:41;;;;;;;6.35;2.92;;;5.40;99.90;;;4.65;51.65;96353.84;4996606;28;20049;-66
2021/04/28 00:38:08;;;;;;;6.78;2.97;;;5.40;99.90;;;4.42;52.80;96354.72;4989867;28;20066;-67
2021/04/28 00:40:39;;;;;;;7.88;2.92;;;5.20;99.90;;;4.35;52.74;96348.16;5006717;28;20049;-66
2021/04/28 00:43:06;;;;;;;6.65;2.58;;;5.20;99.90;;;4.31;53.20;96356.84;4992020;28;20097;-66
2021/04/28 00:45:34;;;;;;;8.40;2.40;;;5.10;99.90;;;4.38;52.70;96343.75;4988047;28;20049;-66
2021/04/28 00:48:05;;;;;;;13.20;3.42;;;5.10;99.90;;;4.41;52.24;96350.50;4989364;28;20494;-66
2021/04/28 00:50:35;;;;;;;8.95;3.03;;;5.10;99.90;;;4.51;52.07;96344.09;4972138;28;20053;-66
2021/04/28 00:53:03;;;;;;;10.32;2.92;;;5.10;99.90;;;4.40;52.83;96343.66;4977782;28;20035;-67
2021/04/28 00:55:31;;;;;;;8.27;3.45;;;5.10;99.90;;;4.33;52.56;96339.66;4970842;28;20108;-66
2021/04/28 00:57:58;;;;;;;9.55;2.58;;;5.10;99.90;;;4.33;52.37;96337.94;5002977;28;20348;-66
2021/04/28 01:00:26;;;;;;;5.10;2.58;;;5.10;99.90;;;4.39;52.49;96334.28;4997145;28;20042;-66
2021/04/28 01:02:53;;;;;;;8.23;2.42;;;5.10;99.90;;;4.43;52.01;96332.47;4983513;28;20165;-66
2021/04/28 01:05:21;;;;;;;5.85;2.78;;;5.10;99.90;;;4.46;52.06;96330.59;4986823;28;20050;-66
2021/04/28 01:07:49;;;;;;;9.40;2.80;;;5.10;99.90;;;4.14;53.84;96336.94;4986416;28;20038;-67
2021/04/28 01:10:24;;;;;;;6.70;2.97;;;5.00;99.90;;;4.06;53.68;96326.97;4970935;28;20383;-66
2021/04/28 01:12:52;;;;;;;6.95;2.97;;;4.90;99.90;;;4.18;53.37;96317.97;4983872;28;20045;-66
2021/04/28 01:15:23;;;;;;;6.03;2.58;;;4.90;99.90;;;4.20;53.53;96329.03;4968931;28;20042;-66
2021/04/28 01:17:50;;;;;;;6.55;2.55;;;4.90;99.90;;;4.21;53.72;96325.53;4970415;28;20411;-67
2021/04/28 01:20:20;;;;;;;5.20;2.38;;;4.90;99.90;;;4.25;52.86;96328.84;4995808;28;20046;-66
2021/04/28 01:22:48;;;;;;;6.25;2.53;;;4.90;99.90;;;4.22;53.40;96321.25;4983200;28;20491;-67
2021/04/28 01:25:20;;;;;;;4.70;2.20;;;4.90;99.90;;;4.14;53.82;96326.69;4986111;28;20462;-66
2021/04/28 01:28:14;;;;;;;9.35;2.80;;;4.80;99.90;;;3.98;54.52;96331.53;4988103;28;20046;-66
2021/04/28 01:31:01;;;;;;;4.93;2.72;;;4.80;99.90;;;3.90;54.84;96326.69;4982593;28;20061;-66
2021/04/28 01:33:40;;;;;;;5.88;3.05;;;4.70;99.90;;;3.94;54.52;96335.94;4986607;28;20550;-67
2021/04/28 01:36:14;;;;;;;5.10;2.50;;;4.60;99.90;;;3.98;54.02;96331.53;4990536;28;20050;-67
2021/04/28 01:38:44;;;;;;;9.68;2.85;;;4.70;99.90;;;3.83;55.03;96329.50;4986602;28;20483;-66
2021/04/28 01:41:11;;;;;;;6.82;2.78;;;4.60;99.90;;;3.78;55.66;96329.69;4987407;28;20067;-69
2021/04/28 01:43:40;;;;;;;8.23;2.65;;;4.60;99.90;;;3.70;55.29;96329.97;4986550;28;20105;-66
2021/04/28 01:46:07;;;;;;;7.15;2.72;;;4.50;99.90;;;3.65;55.39;96320.72;4979210;28;20050;-67
2021/04/28 01:48:34;;;;;;;6.00;2.42;;;4.40;99.90;;;3.61;55.66;96326.88;4980630;28;20058;-66
2021/04/28 01:51:01;;;;;;;12.50;2.35;;;4.40;99.90;;;3.60;55.57;96323.47;4975913;28;20046;-66
2021/04/28 01:53:28;;;;;;;7.68;2.33;;;4.40;99.90;;;3.65;55.21;96320.72;4994011;28;20054;-66
2021/04/28 01:55:56;;;;;;;7.65;2.50;;;4.40;99.90;;;3.47;55.91;96322.25;4989922;28;20042;-66
2021/04/28 01:58:25;;;;;;;5.28;2.83;;;4.30;99.90;;;3.54;55.45;96319.41;4991522;28;20158;-66
2021/04/28 02:00:53;;;;;;;12.35;2.75;;;4.30;99.90;;;3.55;55.85;96322.78;4985170;28;20050;-67
2021/04/28 02:03:24;;;;;;;9.15;2.67;;;4.30;99.90;;;3.55;55.65;96313.34;4973738;28;20104;-67
2021/04/28 02:05:53;;;;;;;8.10;2.78;;;4.30;99.90;;;3.41;56.24;96317.31;5000916;28;20042;-66
2021/04/28 02:08:20;;;;;;;9.07;3.15;;;4.20;99.90;;;3.40;56.52;96316.47;4987894;28;20042;-66
2021/04/28 02:10:47;;;;;;;7.57;2.65;;;4.20;99.90;;;3.54;56.34;96310.88;4973703;28;20042;-66
2021/04/28 02:13:19;;;;;;;10.05;3.08;;;4.20;99.90;;;3.66;56.02;96314.72;4990381;28;20046;-66
2021/04/28 02:15:48;;;;;;;5.03;2.65;;;4.30;99.90;;;3.67;55.34;96307.00;4989546;28;20042;-67
2021/04/28 02:18:16;;;;;;;7.28;2.88;;;4.30;99.90;;;3.54;55.94;96313.44;4988083;28;20046;-67
2021/04/28 02:20:44;;;;;;;5.90;2.70;;;4.30;99.90;;;3.53;56.46;96306.63;4992329;28;20184;-66
2021/04/28 02:23:13;;;;;;;7.45;2.88;;;4.30;99.90;;;3.54;56.28;96305.75;4989555;28;20325;-66
2021/04/28 02:25:39;;;;;;;7.35;2.75;;;4.20;99.90;;;3.54;56.08;96308.31;4989926;28;20050;-66
2021/04/28 02:28:06;;;;;;;6.55;2.33;;;4.20;99.90;;;3.65;55.43;96307.91;4989801;28;20390;-66
2021/04/28 02:30:33;;;;;;;9.52;2.90;;;4.30;99.90;;;3.82;54.90;96308.16;4991318;28;20399;-66
2021/04/28 02:33:02;;;;;;;5.90;3.05;;;4.40;99.90;;;3.78;55.09;96304.00;4990922;28;20061;-66
2021/04/28 02:35:29;;;;;;;5.10;2.88;;;4.40;99.90;;;3.81;55.04;96297.94;4988217;28;20058;-66
2021/04/28 02:38:06;;;;;;;7.13;2.72;;;4.50;99.90;;;3.63;55.65;96297.72;4990873;28;20121;-66
2021/04/28 02:40:37;;;;;;;7.82;3.22;;;4.40;99.90;;;3.58;56.12;96298.75;4973133;28;20055;-66
2021/04/28 02:43:04;;;;;;;9.68;2.90;;;4.30;99.90;;;3.58;55.74;96301.31;4991145;28;20407;-66
2021/04/28 02:45:31;;;;;;;4.60;2.38;;;4.30;99.90;;;3.64;55.59;96295.97;4972734;28;20034;-67
2021/04/28 02:48:01;;;;;;;9.38;2.92;;;4.30;99.90;;;3.65;55.46;96298.50;4989382;28;20035;-66
2021/04/28 02:50:28;;;;;;;7.55;3.25;;;4.30;99.90;;;3.72;55.24;96288.84;4987958;28;20097;-66
2021/04/28 02:52:58;;;;;;;7.30;3.00;;;4.40;99.90;;;3.64;55.62;96286.53;4987653;28;20062;-66
2021/04/28 02:55:25;;;;;;;6.60;3.10;;;4.30;99.90;;;3.59;55.67;96287.63;4994845;28;20514;-67
2021/04/28 02:57:53;;;;;;;6.90;3.00;;;4.30;99.90;;;3.56;55.54;96280.88;4988690;28;20053;-66
2021/04/28 03:00:21;;;;;;;7.97;2.95;;;4.30;99.90;;;3.44;56.37;96282.09;4989398;28;20040;-66
2021/04/28 03:02:50;;;;;;;8.18;3.17;;;4.20;99.90;;;3.34;56.07;96289.31;4988408;28;20106;-66
2021/04/28 03:05:20;;;;;;;8.77;3.05;;;4.10;99.90;;;3.42;56.23;96293.31;4987315;28;20038;-66
2021/04/28 03:07:47;;;;;;;10.48;2.85;;;4.10;99.90;;;3.37;56.32;96288.34;4988774;28;20049;-66
2021/04/28 03:10:15;;;;;;;8.07;3.92;;;4.00;99.90;;;3.32;56.68;96287.69;4990411;28;20050;-67
2021/04/28 03:12:44;;;;;;;5.90;3.20;;;4.00;99.90;;;3.29;57.04;96285.22;4986848;28;20049;-66
2021/04/28 03:15:15;;;;;;;6.75;2.83;;;4.00;99.90;;;3.25;57.18;96281.94;4987445;28;20793;-66
2021/04/28 03:17:47;;;;;;;10.18;3.88;;;4.00;99.90;;;3.21;57.46;96284.66;4989498;28;20044;-66
2021/04/28 03:20:15;;;;;;;6.32;3.05;;;3.90;99.90;;;3.08;57.94;96282.50;4971647;28;20423;-66
2021/04/28 03:22:42;;;;;;;6.30;3.30;;;3.80;99.90;;;2.98;58.43;96278.56;4971256;28;20479;-66
2021/04/28 03:25:10;;;;;;;12.27;3.75;;;3.70;99.90;;;2.92;58.92;96282.19;4984253;28;20041;-66
2021/04/28 03:27:37;;;;;;;9.05;3.55;;;3.70;99.90;;;2.90;58.81;96288.25;4969787;28;20085;-66
2021/04/28 03:30:09;;;;;;;7.35;3.35;;;3.70;99.90;;;2.95;58.89;96288.09;4989165;28;20128;-66
2021/04/28 03:32:35;;;;;;;7.32;3.40;;;3.70;99.90;;;3.01;58.41;96285.31;4988054;28;20057;-66
2021/04/28 03:35:04;;;;;;;9.00;3.67;;;3.70;99.90;;;2.98;58.50;96290.56;4988611;28;20093;-66
2021/04/28 03:37:30;;;;;;;10.07;3.80;;;3.70;99.90;;;2.93;59.18;96285.56;4987690;28;20039;-66
2021/04/28 03:39:57;;;;;;;10.63;4.05;;;3.70;99.90;;;2.85;58.96;96280.72;4970721;28;20119;-66
2021/04/28 03:42:23;;;;;;;8.50;4.00;;;3.60;99.90;;;2.92;58.80;96283.91;4988609;28;20104;-66
2021/04/28 03:44:52;;;;;;;6.10;3.53;;;3.60;99.90;;;2.99;58.59;96290.50;4989436;28;20089;-66
2021/04/28 03:47:19;;;;;;;9.65;3.97;;;3.70;99.90;;;3.10;58.71;96283.31;4988610;28;20043;-66
2021/04/28 03:49:46;;;;;;;8.50;4.15;;;3.70;99.90;;;2.91;59.66;96289.91;4969124;28;610063;-66
2021/04/28 03:52:13;;;;;;;10.07;4.15;;;3.70;99.90;;;2.82;59.87;96290.22;4988444;28;20048;-66
2021/04/28 03:54:40;;;;;;;8.30;4.63;;;3.60;99.90;;;2.88;59.58;96293.41;4989758;28;20054;-66
2021/04/28 03:57:07;;;;;;;9.00;4.22;;;3.60;99.90;;;2.82;59.23;96296.16;4990533;28;20039;-66
2021/04/28 03:59:35;;;;;;;6.60;3.80;;;3.60;99.90;;;2.83;59.54;96297.88;4989566;28;20057;-66
2021/04/28 04:02:03;;;;;;;10.80;4.57;;;3.60;99.90;;;2.56;60.69;96294.44;4988171;28;20057;-66
2021/04/28 04:04:31;;;;;;;9.52;4.93;;;3.50;99.90;;;2.28;61.77;96297.88;4990407;28;20045;-66
2021/04/28 04:06:58;;;;;;;9.18;4.90;;;3.20;99.90;;;2.35;61.83;96295.09;4989755;28;20069;-66
2021/04/28 04:09:25;;;;;;;8.68;4.80;;;3.10;99.90;;;2.30;62.19;96296.09;4989467;28;20038;-66
2021/04/28 04:11:52;;;;;;;11.00;5.13;;;3.00;99.90;;;2.57;61.86;96298.69;4985389;28;20038;-66
2021/04/28 04:14:19;;;;;;;9.32;4.85;;;3.10;99.90;;;2.66;61.18;96300.94;4990269;28;20459;-67
2021/04/28 04:16:46;;;;;;;8.45;4.93;;;3.30;99.90;;;2.49;62.42;96308.34;4988739;28;20049;-66
2021/04/28 04:19:13;;;;;;;9.55;4.60;;;3.30;99.90;;;2.50;62.22;96308.28;4987940;28;20496;-67
2021/04/28 04:21:39;;;;;;;10.90;4.85;;;3.30;99.90;;;2.47;62.59;96312.66;4987995;28;20042;-67
2021/04/28 04:24:07;;;;;;;12.55;6.38;;;3.30;99.90;;;2.44;63.13;96300.81;4989492;28;20328;-65
2021/04/28 04:26:34;;;;;;;7.97;4.78;;;3.30;99.90;;;2.58;62.76;96308.06;4987675;28;20054;-66
2021/04/28 04:29:06;;;;;;;11.00;4.95;;;3.30;99.90;;;2.60;62.40;96306.28;4986679;28;20104;-66
2021/04/28 04:31:33;;;;;;;13.10;5.05;;;3.40;99.90;;;2.75;61.98;96302.38;4983102;28;20050;-67
2021/04/28 04:34:00;;;;;;;9.02;4.22;;;3.50;99.90;;;2.86;61.52;96305.44;4985391;28;20104;-67
2021/04/28 04:36:27;;;;;;;10.18;5.20;;;3.60;99.90;;;2.86;61.71;96302.03;4972147;28;20038;-66
2021/04/28 04:38:54;;;;;;;7.45;4.78;;;3.60;99.90;;;2.86;61.69;96305.44;4983526;28;20046;-66
2021/04/28 04:41:21;;;;;;;12.65;5.20;;;3.60;99.90;;;2.85;61.80;96306.34;4988334;28;20416;-66
2021/04/28 04:43:47;;;;;;;9.25;4.85;;;3.60;99.90;;;2.69;62.29;96303.44;4970519;28;20047;-66
2021/04/28 04:46:14;;;;;;;10.32;4.70;;;3.60;99.90;;;2.94;61.64;96300.06;4985035;28;20047;-66
2021/04/28 04:48:41;;;;;;;10.15;4.97;;;3.60;99.90;;;2.88;62.01;96297.72;4980940;28;20065;-66
2021/04/28 04:51:08;;;;;;;10.45;5.07;;;3.70;99.90;;;2.84;61.94;96303.81;4968895;28;20173;-67
2021/04/28 04:53:34;;;;;;;8.70;4.43;;;3.70;99.90;;;2.97;61.30;96309.41;4988082;28;20077;-66
2021/04/28 04:56:02;;;;;;;10.50;4.88;;;3.70;99.90;;;3.02;60.92;96312.63;4987096;28;20503;-66
2021/04/28 04:58:29;;;;;;;8.90;4.28;;;3.80;99.90;;;3.09;60.46;96312.38;4989575;28;20467;-66
2021/04/28 05:00:56;;;;;;;10.77;4.93;;;3.90;99.90;;;3.13;60.57;96308.81;4974996;28;20079;-66
2021/04/28 05:03:22;;;;;;;8.60;4.47;;;3.90;99.90;;;3.17;61.00;96307.00;4987431;28;20049;-66
2021/04/28 05:05:49;;;;;;;11.10;4.80;;;4.00;99.90;;;3.12;62.17;96311.44;4988666;28;20430;-66
2021/04/28 05:08:15;;;;;;;12.90;4.30;;;4.00;99.90;;;3.21;61.93;96321.38;4989368;28;20054;-66
2021/04/28 05:10:42;;;;;;;10.77;4.22;;;4.00;99.90;;;3.24;62.12;96317.88;4988648;28;20061;-66
2021/04/28 05:13:10;;;;;;;9.82;5.13;;;4.00;99.90;;;3.24;61.90;96316.16;4988897;28;20441;-66
2021/04/28 05:15:37;;;;;;;12.98;5.05;;;4.10;99.90;;;3.46;60.97;96323.94;4977709;28;20077;-66
2021/04/28 05:18:03;;;;;;;11.05;4.70;;;4.20;99.90;;;3.61;60.53;96312.31;4986430;28;20057;-66
2021/04/28 05:20:30;;;;;;;12.60;4.47;;;4.40;99.90;;;3.75;59.85;96316.97;4987410;28;20109;-67
2021/04/28 05:22:57;;;;;;;8.70;4.20;;;4.50;99.90;;;3.78;60.66;96317.69;4987064;28;20447;-66
2021/04/28 05:25:25;;;;;;;9.57;4.22;;;4.60;99.90;;;3.86;59.78;96317.41;4986940;28;20038;-66
2021/04/28 05:27:51;;;;;;;8.40;4.03;;;4.70;99.90;;;3.89;59.98;96313.91;4985773;28;20061;-67
2021/04/28 05:30:20;;;;;;;21.58;4.55;;;4.80;99.90;;;4.10;58.99;96317.41;4986736;28;20513;-66
2021/04/28 05:32:48;;;;;;;9.15;4.22;;;4.90;99.90;;;4.25;58.99;96316.00;4987241;28;20106;-66
2021/04/28 05:35:15;;;;;;;8.30;4.68;;;5.10;99.90;;;4.64;57.32;96312.81;4987608;28;20051;-67
2021/04/28 05:37:41;;;;;;;6.80;4.35;;;5.40;99.90;;;4.95;56.01;96305.53;4986846;28;20448;-66
2021/04/28 05:40:10;;;;;;;8.20;4.70;;;5.70;99.90;;;5.10;56.03;96311.78;4971651;28;20049;-66
2021/04/28 05:42:38;;;;;;;9.68;4.22;;;5.90;99.90;;;5.29;55.57;96303.28;4957928;28;20077;-67
2021/04/28 05:45:08;;;;;;;10.43;4.22;;;6.10;99.90;;;5.55;53.97;96300.47;4988813;28;20038;-66
2021/04/28 05:47:34;;;;;;;16.33;4.22;;;6.30;99.90;;;5.64;54.16;96305.22;4971173;28;20050;-66
2021/04/28 05:50:05;;;;;;;9.13;4.72;;;6.50;99.90;;;5.75;53.98;96309.06;4989463;28;20050;-66
2021/04/28 05:52:32;;;;;;;8.40;4.30;;;6.60;99.90;;;5.86;53.67;96305.13;4988558;28;20434;-66
2021/04/28 05:54:58;;;;;;;11.23;4.38;;;6.80;99.90;;;5.97;52.64;96304.66;4969260;28;20049;-66
2021/04/28 05:57:36;;;;;;;7.53;4.40;;;6.90;99.90;;;6.08;53.08;96309.31;4993638;28;20046;-67
2021/04/28 06:00:13;;;;;;;7.97;3.92;;;7.00;99.90;;;6.16;52.98;96296.09;4987518;28;20045;-66
2021/04/28 06:02:41;;;;;;;11.35;5.00;;;7.10;99.90;;;6.30;53.00;96306.63;4959103;28;20042;-66
2021/04/28 06:05:09;;;;;;;9.20;4.50;;;7.30;99.90;;;6.49;51.90;96304.84;4990964;28;20184;-66
2021/04/28 06:07:35;;;;;;;10.07;4.50;;;7.40;99.90;;;6.68;51.13;96314.28;4978730;28;20046;-67
2021/04/28 06:10:03;;;;;;;8.93;4.78;;;7.50;99.90;;;6.68;51.31;96312.56;4968966;28;20165;-67
2021/04/28 06:12:30;;;;;;;8.43;4.25;;;7.60;99.90;;;6.89;50.90;96310.72;4986876;28;20042;-66
2021/04/28 06:14:56;;;;;;;7.40;4.05;;;7.80;99.90;;;6.98;50.40;96306.84;4983039;28;20149;-66
2021/04/28 06:17:23;;;;;;;9.18;4.55;;;7.90;99.90;;;7.14;49.91;96309.53;4995074;28;20030;-67
2021/04/28 06:19:49;;;;;;;9.27;4.18;;;8.00;99.90;;;7.23;49.98;96314.22;4976216;28;20478;-66
2021/04/28 06:22:16;;;;;;;10.95;4.90;;;8.20;99.90;;;7.39;49.33;96308.28;4983900;28;20046;-66
2021/04/28 06:24:42;;;;;;;10.15;4.38;;;8.30;99.90;;;7.52;49.55;96311.91;4987639;28;20153;-67
2021/04/28 06:27:09;;;;;;;10.45;4.53;;;8.40;99.90;;;7.69;47.87;96305.91;4992822;28;20050;-66
2021/04/28 06:29:36;;;;;;;9.65;4.32;;;8.50;99.90;;;7.81;47.61;96304.44;5005229;28;20422;-67
2021/04/28 06:32:02;;;;;;;7.30;4.32;;;8.70;99.90;;;8.06;48.60;96304.81;4987144;28;20054;-66
2021/04/28 06:34:30;;;;;;;12.23;5.25;;;8.90;99.90;;;8.18;47.02;96291.22;4984996;28;20125;-67
2021/04/28 06:36:57;;;;;;;9.20;4.28;;;9.10;99.90;;;8.32;46.75;96292.25;4983865;28;20042;-67
2021/04/28 06:39:23;;;;;;;11.68;5.13;;;9.30;99.90;;;8.38;46.79;96295.31;4985643;28;20054;-66
2021/04/28 06:41:50;;;;;;;8.75;4.50;;;9.40;99.90;;;8.57;46.22;96296.94;4971044;28;20407;-66
2021/04/28 06:44:16;;;;;;;9.88;4.32;;;9.50;99.90;;;8.69;45.92;96290.25;4986167;28;20505;-66
2021/04/28 06:46:43;;;;;;;9.50;4.53;;;9.70;99.90;;;8.78;45.14;96285.41;4991029;28;20053;-67
2021/04/28 06:49:09;;;;;;;11.77;4.88;;;9.80;99.90;;;8.83;44.69;96290.34;4991604;28;20056;-67
2021/04/28 06:51:36;;;;;;;11.18;5.07;;;9.80;99.90;;;8.94;44.37;96292.28;4990472;28;20357;-66
2021/04/28 06:54:03;;;;;;;14.38;4.93;;;9.90;99.90;;;9.09;44.94;96290.59;4991206;28;20083;-66
2021/04/28 06:56:31;;;;;;;12.20;5.43;;;10.00;99.90;;;9.20;44.75;96288.22;4949700;28;20053;-66
2021/04/28 06:58:58;;;;;;;13.43;5.75;;;10.20;99.90;;;9.24;44.69;96291.47;4991248;28;20266;-67
2021/04/28 07:01:25;;;;;;;22.27;9.07;;;10.30;99.90;;;9.48;44.50;96281.44;5002124;28;20042;-66
2021/04/28 07:03:52;;;;;;;27.90;11.98;;;10.50;99.90;;;9.43;44.36;96281.72;4964170;28;20142;-67
2021/04/28 07:06:19;;;;;;;32.97;13.93;;;10.50;99.90;;;9.63;44.35;96281.38;4981692;28;20042;-67
2021/04/28 07:08:45;;;;;;;32.85;14.18;;;10.60;99.90;;;9.76;44.20;96278.88;4985055;28;20518;-67
2021/04/28 07:11:12;;;;;;;25.73;12.57;;;10.70;99.90;;;9.58;44.30;96285.16;4990432;28;20046;-65
2021/04/28 07:13:38;;;;;;;27.27;11.18;;;10.80;99.60;;;9.74;44.51;96287.66;4981849;28;20053;-67
2021/04/28 07:16:05;;;;;;;17.15;8.55;;;10.90;99.70;;;9.86;43.52;96281.75;4995812;28;20094;-66
2021/04/28 07:18:32;;;;;;;16.42;7.50;;;10.90;99.10;;;10.01;43.31;96275.63;4974189;28;20419;-67
2021/04/28 07:20:58;;;;;;;16.10;6.82;;;10.90;99.00;;;10.02;43.20;96277.28;5000902;28;20046;-67
2021/04/28 07:23:25;;;;;;;16.00;6.68;;;10.90;98.90;;;10.34;42.86;96287.47;4977178;28;20133;-67
2021/04/28 07:25:55;;;;;;;12.70;6.40;;;11.10;98.90;;;10.61;42.92;96277.13;4964062;28;20055;-67
2021/04/28 07:28:21;;;;;;;11.32;5.93;;;11.40;99.00;;;10.52;42.33;96276.88;4989322;28;20046;-67
2021/04/28 07:30:49;;;;;;;10.80;5.82;;;11.60;98.00;;;10.69;41.77;96287.00;4990247;28;20053;-67
2021/04/28 07:33:16;;;;;;;12.50;6.97;;;11.70;97.40;;;10.94;41.64;96283.66;4989057;28;20057;-67
2021/04/28 07:35:42;;;;;;;10.77;5.03;;;11.90;97.40;;;11.20;41.42;96284.59;4992371;28;20411;-67
2021/04/28 07:38:09;;;;;;;12.55;6.00;;;12.00;97.10;;;10.94;41.32;96273.28;4994196;28;20527;-67
2021/04/28 07:40:36;;;;;;;9.23;4.80;;;12.00;96.60;;;11.30;40.67;96272.63;4990719;28;20047;-67
2021/04/28 07:43:02;;;;;;;10.63;4.63;;;12.10;96.50;;;11.34;40.87;96272.47;4997069;28;20042;-66
2021/04/28 07:45:29;;;;;;;8.02;4.75;;;12.30;96.30;;;11.58;40.17;96270.78;4992844;28;20450;-67
2021/04/28 07:47:55;;;;;;;14.65;5.45;;;12.40;95.90;;;11.72;39.46;96275.91;4997847;28;20061;-65
2021/04/28 07:50:22;;;;;;;10.63;4.72;;;12.60;94.90;;;11.84;40.37;96266.44;4957559;28;20042;-65
2021/04/28 07:52:49;;;;;;;7.88;4.30;;;12.80;95.30;;;12.29;39.91;96265.97;5000613;28;20065;-65
2021/04/28 07:55:17;;;;;;;12.60;6.35;;;13.10;94.90;;;12.37;38.38;96268.88;4994659;28;20049;-65
2021/04/28 07:57:44;;;;;;;9.70;4.32;;;13.40;93.50;;;12.66;39.13;96265.97;4960907;28;20180;-65
2021/04/28 08:00:13;;;;;;;8.30;4.35;;;13.80;93.50;;;12.88;38.16;96260.84;4994455;28;20057;-65
2021/04/28 08:02:40;;;;;;;10.73;4.25;;;14.20;91.80;;;13.44;38.37;96265.47;4991863;28;20050;-65
2021/04/28 08:05:09;;;;;;;11.90;4.97;;;14.90;91.70;;;12.76;37.37;96264.34;4996375;28;20046;-65
2021/04/28 08:07:37;;;;;;;8.02;4.30;;;15.30;88.60;;;13.18;38.63;96268.22;4967985;28;20134;-65
2021/04/28 08:10:08;;;;;;;12.27;5.18;;;15.60;88.90;;;13.98;35.78;96261.34;4990449;28;20462;-65
2021/04/28 08:12:35;;;;;;;9.45;5.38;;;15.80;84.40;;;14.43;35.28;96259.53;4994103;28;20058;-66
2021/04/28 08:15:03;;;;;;;9.10;5.03;;;16.00;82.20;;;15.30;35.34;96265.69;4993681;28;20514;-65
2021/04/28 08:17:30;;;;;;;14.00;4.82;;;16.70;82.80;;;14.54;34.01;96263.94;4972985;28;20419;-65
2021/04/28 08:20:00;;;;;;;9.75;4.88;;;17.00;76.50;;;16.01;32.65;96264.09;4989670;28;20053;-65
2021/04/28 08:22:27;;;;;;;9.15;4.88;;;17.10;75.60;;;16.78;31.48;96264.44;4957048;28;20050;-65
2021/04/28 08:24:54;;;;;;;6.95;4.88;;;17.40;74.70;;;17.13;30.02;96262.16;4989823;28;20662;-65
2021/04/28 08:27:23;;;;;;;10.20;5.28;;;17.90;73.20;;;17.40;29.91;96268.47;4980714;28;20033;-66
2021/04/28 08:29:49;;;;;;;10.32;5.43;;;18.20;69.30;;;17.31;29.93;96259.66;4988579;28;20138;-65
2021/04/28 08:32:19;;;;;;;12.98;5.97;;;18.00;68.40;;;17.08;29.21;96259.13;4992927;28;20176;-66
2021/04/28 08:34:46;;;;;;;11.48;6.00;;;18.10;66.30;;;16.97;30.74;96258.41;4960473;28;20042;-65
2021/04/28 08:37:13;;;;;;;13.77;6.28;;;18.20;66.80;;;17.44;28.66;96263.78;4991249;28;20049;-66
2021/04/28 08:39:40;;;;;;;12.18;4.93;;;18.20;64.40;;;17.94;28.90;96258.31;4990056;28;20046;-66
2021/04/28 08:42:09;;;;;;;10.60;5.70;;;18.40;64.90;;;18.24;29.24;96256.41;4994182;28;20344;-66
2021/04/28 08:44:36;;;;;;;9.82;5.60;;;18.90;65.70;;;18.16;28.68;96259.78;4987051;28;20049;-66
2021/04/28 08:47:03;;;;;;;12.70;5.75;;;19.20;62.80;;;18.27;28.41;96249.06;4991521;28;20046;-66
2021/04/28 08:49:31;;;;;;;9.57;5.15;;;19.30;61.80;;;18.81;28.05;96257.09;4992275;28;20054;-66
2021/04/28 08:51:58;;;;;;;10.40;6.65;;;19.70;61.10;;;18.34;27.33;96250.16;4992537;28;20050;-66
2021/04/28 08:54:46;;;;;;;10.00;5.70;;;19.60;59.00;;;18.34;27.73;96252.78;4970944;28;20058;-66
2021/04/28 08:57:13;;;;;;;13.48;6.20;;;19.60;58.90;;;19.17;26.73;96257.91;4993302;28;20117;-66
2021/04/28 08:59:40;;;;;;;13.02;6.40;;;19.70;58.50;;;18.77;27.48;96251.31;4975686;28;20038;-66
2021/04/28 09:02:21;;;;;;;12.55;7.13;;;19.80;58.10;;;18.66;26.52;96256.75;4984118;28;20042;-66
2021/04/28 09:05:11;;;;;;;15.23;6.70;;;19.70;56.10;;;18.80;27.14;96255.44;4977970;28;20490;-66
2021/04/28 09:07:40;;;;;;;14.13;6.50;;;20.50;56.10;;;19.30;26.09;96265.44;4976064;28;20225;-65
2021/04/28 09:10:20;;;;;;;10.43;6.38;;;20.40;54.90;;;19.34;26.73;96265.94;4987980;28;20471;-66
2021/04/28 09:12:51;;;;;;;11.63;6.32;;;20.60;55.80;;;19.84;25.03;96274.09;4989216;28;20574;-66
2021/04/28 09:15:35;;;;;;;10.82;6.13;;;20.90;53.90;;;20.44;25.17;96267.16;4991599;28;20065;-65
2021/04/28 09:18:07;;;;;;;10.80;7.32;;;21.30;53.70;;;19.97;24.93;96265.75;4979929;28;20407;-65
2021/04/28 09:20:41;;;;;;;11.70;6.47;;;21.10;52.30;;;20.41;24.80;96263.03;4991720;28;20205;-65
2021/04/28 09:23:17;;;;;;;6.88;5.45;;;21.50;51.90;;;21.37;24.97;96266.22;4989049;28;20056;-65
2021/04/28 09:25:51;;;;;;;9.68;6.40;;;22.20;54.10;;;21.83;23.70;96266.56;4978069;28;20057;-65
2021/04/28 09:28:36;;;;;;;12.52;7.25;;;22.70;51.50;;;20.64;23.87;96263.31;4990485;28;20045;-65
2021/04/28 09:31:06;;;;;;;8.93;6.70;;;22.30;49.90;;;20.26;24.44;96265.44;4991726;28;20876;-65
2021/04/28 09:33:42;;;;;;;13.65;7.47;;;22.80;50.40;;;21.17;23.93;96257.81;4987468;28;20049;-66
2021/04/28 09:36:09;;;;;;;11.27;6.90;;;22.50;50.90;;;21.29;25.05;96251.22;4988231;28;20042;-65
2021/04/28 09:39:09;;;;;;;10.88;7.30;;;22.80;51.60;;;22.47;23.44;96242.78;4988573;28;20031;-65
2021/04/28 09:41:43;;;;;;;11.32;7.53;;;23.40;50.00;;;22.54;21.76;96247.19;4947221;28;20424;-65
2021/04/28 09:44:19;;;;;;;8.25;5.28;;;23.80;47.50;;;22.76;23.03;96244.75;4981284;28;20066;-66
2021/04/28 09:47:22;;;;;;;10.93;7.82;;;24.40;48.70;;;21.85;22.38;96244.25;4988804;28;20047;-65
2021/04/28 09:49:53;;;;;;;14.65;8.68;;;24.10;47.20;;;21.34;23.18;96248.06;4975482;28;20053;-65
2021/04/28 09:52:33;;;;;;;13.00;9.05;;;23.10;48.70;;;18.79;26.24;96252.00;4970921;28;20056;-66
2021/04/28 09:55:07;;;;;;;9.95;7.07;;;22.30;48.00;;;21.58;24.39;96244.66;4972524;28;20465;-66
2021/04/28 09:57:48;;;;;;;8.75;6.60;;;22.70;49.60;;;22.18;23.78;96238.88;4970468;28;20050;-66
2021/04/28 10:00:29;;;;;;;10.77;7.18;;;23.40;48.70;;;22.54;22.92;96231.31;4915033;28;20057;-65
2021/04/28 10:02:59;;;;;;;11.48;7.50;;;24.10;47.40;;;21.92;23.48;96232.03;4987819;28;20058;-66
2021/04/28 10:05:30;;;;;;;13.75;8.80;;;24.50;47.10;;;22.01;23.01;96235.47;5003419;28;20077;-65
2021/04/28 10:08:20;;;;;;;13.10;7.65;;;24.20;45.60;;;22.61;22.34;96220.06;5015682;28;20103;-66
2021/04/28 10:10:52;;;;;;;17.67;8.23;;;24.60;45.70;;;21.51;23.00;96218.91;4982772;28;20057;-65
2021/04/28 10:13:20;;;;;;;11.40;7.85;;;23.60;45.50;;;21.92;23.23;96213.53;5011557;28;20144;-65
2021/04/28 10:15:47;;;;;;;11.77;7.32;;;23.90;45.80;;;21.42;22.72;96219.91;4961252;28;20054;-66
2021/04/28 10:18:16;;;;;;;9.00;6.38;;;24.40;44.90;;;21.27;21.28;96210.97;4990286;28;20069;-66
2021/04/28 10:20:46;;;;;;;9.73;5.82;;;24.00;43.00;;;22.81;21.75;96196.63;5011625;28;20046;-66
2021/04/28 10:23:16;;;;;;;9.63;6.40;;;23.60;46.00;;;23.11;19.95;96211.66;4985809;28;20084;-66
2021/04/28 10:25:47;;;;;;;10.38;5.68;;;24.30;43.30;;;20.67;22.39;96212.06;5012759;28;20049;-65
2021/04/28 10:28:15;;;;;;;13.15;6.68;;;24.40;42.40;;;19.66;24.23;96210.13;4977459;28;20043;-66
2021/04/28 10:30:52;;;;;;;10.55;6.05;;;24.10;43.20;;;22.17;21.78;96202.91;4989116;28;20380;-65
2021/04/28 10:33:33;;;;;;;9.70;6.07;;;23.70;44.60;;;22.67;22.13;96193.75;4976793;28;20295;-66